Time;durP1;ratioP1;P1;durP2;ratioP2;P2;SDS_P1;SDS_P2;PMS_P1;PMS_P2;Temp;Humidity;BMP_temperature;BMP_pressure;BME280_temperature;BME280_humidity;BME280_pressure;Samples;Min_cycle;Max_cycle;Signal;HPM_P1;HPM_P2
2023/10/02 00:00:19;;;;;;;13.77;7.70;;;;;;;19.70;50.14;98126.44;5031304;28;20461;-72
2023/10/02 00:02:45;;;;;;;17.57;7.50;;;;;;;19.67;49.75;98129.44;5033098;28;20433;-70
2023/10/02 00:05:11;;;;;;;19.67;7.80;;;;;;;19.66;50.02;98125.13;5026239;28;20461;-70
2023/10/02 00:07:42;;;;;;;14.37;7.80;;;;;;;19.63;49.92;98122.88;5029854;28;20434;-72
2023/10/02 00:10:08;;;;;;;14.57;6.93;;;;;;;19.57;50.36;98129.78;5037611;28;20860;-72
2023/10/02 00:12:34;;;;;;;13.80;7.40;;;;;;;19.54;50.26;98131.97;5032080;28;20473;-70
2023/10/02 00:15:12;;;;;;;17.20;8.00;;;;;;;19.45;50.56;98129.44;5030492;28;20755;-70
2023/10/02 00:17:43;;;;;;;14.00;7.40;;;;;;;19.43;50.59;98128.78;5037236;28;20245;-72
2023/10/02 00:20:14;;;;;;;12.97;7.20;;;;;;;19.36;50.66;98124.41;5025848;28;20434;-71
2023/10/02 00:22:42;;;;;;;12.63;7.70;;;;;;;19.36;50.95;98127.91;5037263;28;20461;-71
2023/10/02 00:25:09;;;;;;;14.50;7.50;;;;;;;19.23;50.79;98120.56;5046258;28;20544;-72
2023/10/02 00:27:35;;;;;;;16.13;7.80;;;;;;;19.21;51.01;98121.78;5038212;28;20509;-72
2023/10/02 00:30:02;;;;;;;12.80;7.10;;;;;;;19.13;51.39;98115.56;5035103;28;20496;-70
2023/10/02 00:32:33;;;;;;;16.77;7.20;;;;;;;19.09;51.65;98113.47;5029252;28;20924;-69
2023/10/02 00:35:00;;;;;;;13.90;7.10;;;;;;;19.07;51.62;98123.44;5037120;28;20456;-70
2023/10/02 00:37:44;;;;;;;12.40;7.23;;;;;;;19.07;51.68;98118.94;5029209;28;20437;-70
2023/10/02 00:40:22;;;;;;;13.00;7.70;;;;;;;19.06;51.55;98117.28;5039693;28;20491;-71
2023/10/02 00:42:58;;;;;;;15.10;7.63;;;;;;;18.97;51.74;98115.75;5032028;28;20429;-69
2023/10/02 00:45:42;;;;;;;14.20;7.23;;;;;;;18.98;51.76;98114.75;5022744;28;21012;-69
2023/10/02 00:48:26;;;;;;;13.50;7.67;;;;;;;18.94;51.82;98110.81;5027666;28;20442;-70
2023/10/02 00:50:59;;;;;;;14.43;7.73;;;;;;;18.97;52.01;98110.44;5030304;28;20435;-72
2023/10/02 00:53:38;;;;;;;17.63;7.30;;;;;;;18.96;51.99;98112.28;5040543;28;20466;-70
2023/10/02 00:56:21;;;;;;;14.80;7.30;;;;;;;18.97;51.90;98113.09;5027237;28;20473;-70
2023/10/02 00:58:55;;;;;;;13.17;7.30;;;;;;;18.94;51.88;98110.81;5019751;28;20434;-71
2023/10/02 01:01:21;;;;;;;13.63;7.67;;;;;;;18.85;52.24;98107.38;5028098;28;20441;-71
2023/10/02 01:06:33;;;;;;;12.20;6.67;;;;;;;18.84;52.20;98100.41;5028219;28;20991;-70
2023/10/02 01:09:00;;;;;;;13.77;7.00;;;;;;;18.85;52.25;98096.75;5028507;28;20430;-71
2023/10/02 01:11:25;;;;;;;15.50;7.87;;;;;;;18.81;52.39;98096.31;5033769;28;20452;-70
2023/10/02 01:13:53;;;;;;;11.33;6.73;;;;;;;18.79;52.60;98095.66;5032832;28;20490;-72
2023/10/02 01:16:20;;;;;;;14.43;8.03;;;;;;;18.76;52.72;98095.22;5029314;28;20226;-71
2023/10/02 01:18:48;;;;;;;14.37;7.10;;;;;;;18.77;52.65;98092.38;5041011;28;20450;-72
2023/10/02 01:21:14;;;;;;;17.23;7.83;;;;;;;18.74;53.39;98095.41;5037644;28;20434;-70
2023/10/02 01:26:32;;;;;;;13.47;7.50;;;;;;;18.84;53.19;98095.94;5027366;28;21152;-71
2023/10/02 01:29:01;;;;;;;14.10;7.40;;;;;;;18.81;52.91;98091.00;5028847;28;20426;-71
2023/10/02 01:31:35;;;;;;;13.60;7.93;;;;;;;18.79;52.83;98092.19;5029039;28;20461;-70
2023/10/02 01:34:02;;;;;;;14.27;7.73;;;;;;;18.76;53.03;98093.41;5024355;28;20473;-70
2023/10/02 01:36:32;;;;;;;12.70;7.40;;;;;;;18.73;53.03;98089.25;5028820;28;20461;-71
2023/10/02 01:39:10;;;;;;;13.70;6.73;;;;;;;18.68;53.05;98089.00;5025230;28;20461;-71
2023/10/02 01:41:38;;;;;;;13.17;7.40;;;;;;;18.66;53.02;98095.47;5029510;28;20441;-72
2023/10/02 01:44:07;;;;;;;14.60;8.20;;;;;;;18.59;53.08;98090.06;5030341;28;20454;-69
2023/10/02 01:46:36;;;;;;;16.50;8.07;;;;;;;18.57;53.16;98087.59;5028203;28;20955;-72
2023/10/02 01:49:02;;;;;;;13.43;7.97;;;;;;;18.58;53.13;98086.59;5031134;28;20499;-70
2023/10/02 01:51:29;;;;;;;22.13;8.33;;;;;;;18.58;53.24;98078.66;5028466;28;20514;-70
2023/10/02 01:54:15;;;;;;;13.83;7.47;;;;;;;18.56;53.43;98082.50;5027474;28;20458;-69
2023/10/02 01:56:45;;;;;;;15.63;7.80;;;;;;;18.52;53.42;98082.03;5027648;28;20926;-70
2023/10/02 01:59:14;;;;;;;12.33;7.20;;;;;;;18.52;53.36;98083.84;5019498;28;20416;-71
2023/10/02 02:01:52;;;;;;;15.80;7.60;;;;;;;18.45;53.76;98081.09;5029970;28;20438;-71
2023/10/02 02:04:20;;;;;;;12.50;7.73;;;;;;;18.45;53.92;98086.41;5027552;28;20429;-71
2023/10/02 02:06:53;;;;;;;15.63;8.10;;;;;;;18.41;54.15;98085.13;5026567;28;20422;-70
2023/10/02 02:09:25;;;;;;;13.93;7.60;;;;;;;18.41;54.14;98087.75;5027482;28;20438;-72
2023/10/02 02:12:05;;;;;;;17.63;8.50;;;;;;;18.41;54.01;98079.81;5032300;28;20430;-71
2023/10/02 02:14:31;;;;;;;15.60;7.20;;;;;;;18.41;54.13;98085.13;5027640;28;20478;-70
2023/10/02 02:16:57;;;;;;;16.97;8.20;;;;;;;18.38;54.25;98085.50;5027624;28;20774;-71
2023/10/02 02:19:23;;;;;;;14.07;8.13;;;;;;;18.43;54.10;98083.09;5027406;28;20431;-72
2023/10/02 02:21:49;;;;;;;15.03;7.90;;;;;;;18.48;54.03;98086.06;5028037;28;20593;-70
2023/10/02 02:24:15;;;;;;;17.83;8.63;;;;;;;18.46;54.08;98090.72;5031830;28;20511;-72
2023/10/02 02:26:40;;;;;;;15.77;8.83;;;;;;;18.45;54.37;98085.59;5029750;28;20554;-71
2023/10/02 02:29:28;;;;;;;14.37;7.47;;;;;;;18.42;54.60;98082.28;5039810;28;20275;-70
2023/10/02 02:31:55;;;;;;;16.63;8.50;;;;;;;18.39;54.99;98089.81;5025540;28;20203;-71
2023/10/02 02:34:25;;;;;;;17.77;8.33;;;;;;;18.41;55.33;98078.00;5029070;28;20517;-71
2023/10/02 02:36:51;;;;;;;16.40;8.30;;;;;;;18.44;55.34;98076.78;5026519;28;20458;-71
2023/10/02 02:39:22;;;;;;;14.93;8.50;;;;;;;18.40;55.59;98079.00;5026068;28;20504;-71
2023/10/02 02:44:46;;;;;;;14.37;8.67;;;;;;;18.35;55.92;98075.22;5027100;28;20521;-70
2023/10/02 02:47:13;;;;;;;16.93;8.80;;;;;;;18.42;55.71;98086.75;5033215;28;20553;-70
2023/10/02 02:49:51;;;;;;;18.03;9.20;;;;;;;18.44;55.68;98074.16;5031503;28;20434;-71
2023/10/02 02:52:26;;;;;;;19.20;8.90;;;;;;;18.39;56.37;98071.22;5030947;28;20544;-72
2023/10/02 02:54:58;;;;;;;17.07;8.60;;;;;;;18.37;56.79;98078.53;5037882;28;20460;-71
2023/10/02 02:57:28;;;;;;;19.27;9.13;;;;;;;18.32;57.17;98071.13;5041781;28;20429;-70
2023/10/02 03:02:47;;;;;;;15.43;8.07;;;;;;;18.42;56.70;98068.19;5038424;28;20441;-71
2023/10/02 03:05:14;;;;;;;16.50;7.97;;;;;;;18.41;56.65;98069.19;5023611;28;20471;-71
2023/10/02 03:07:44;;;;;;;15.80;8.07;;;;;;;18.41;56.39;98067.38;5035682;28;20464;-70
2023/10/02 03:10:11;;;;;;;18.90;9.10;;;;;;;18.43;56.59;98067.19;5046404;28;20422;-72
2023/10/02 03:12:44;;;;;;;14.53;8.00;;;;;;;18.42;56.74;98070.84;5050389;28;20525;-72
2023/10/02 03:18:22;;;;;;;15.70;8.77;;;;;;;18.44;56.93;98068.03;5058948;28;20433;-71
2023/10/02 03:20:49;;;;;;;13.43;7.93;;;;;;;18.45;57.08;98074.97;5046214;28;20426;-71
2023/10/02 03:23:18;;;;;;;17.43;9.03;;;;;;;18.42;57.11;98070.84;5032199;28;20822;-70
2023/10/02 03:25:45;;;;;;;18.27;9.03;;;;;;;18.16;56.43;98074.72;5035994;28;20481;-71
2023/10/02 03:28:44;;;;;;;17.10;8.07;;;;;;;18.20;56.07;98073.38;5038954;28;20430;-72
2023/10/02 03:31:03;;;;;;;19.53;7.80;;;;;;;18.17;56.11;98081.69;5031459;28;20454;-72
2023/10/02 03:33:31;;;;;;;16.57;8.80;;;;;;;18.11;56.10;98072.63;5030489;28;20466;-72
2023/10/02 03:36:10;;;;;;;17.50;8.47;;;;;;;18.10;56.55;98072.81;5031159;28;20529;-71
2023/10/02 03:38:41;;;;;;;14.80;8.13;;;;;;;18.06;56.64;98079.47;5034067;28;20441;-69
2023/10/02 03:41:07;;;;;;;16.60;9.07;;;;;;;18.03;56.78;98078.00;5033611;28;20542;-71
2023/10/02 03:43:35;;;;;;;16.17;7.77;;;;;;;18.04;56.62;98081.47;5029544;28;20525;-72
2023/10/02 03:46:13;;;;;;;14.50;7.80;;;;;;;18.02;56.62;98086.16;5038195;28;20234;-71
2023/10/02 03:48:39;;;;;;;14.87;7.90;;;;;;;17.96;56.87;98077.03;5033476;28;20435;-72
2023/10/02 03:51:04;;;;;;;14.33;7.77;;;;;;;17.99;56.76;98081.19;5022519;28;20814;-72
2023/10/02 03:53:30;;;;;;;15.27;8.77;;;;;;;17.95;56.76;98089.47;5028683;28;20211;-72
2023/10/02 03:58:52;;;;;;;15.50;8.37;;;;;;;17.98;56.84;98087.50;5023032;28;20188;-72
2023/10/02 04:01:40;;;;;;;19.80;8.37;;;;;;;17.95;56.69;98081.53;5028187;28;20545;-71
2023/10/02 04:06:43;;;;;;;17.33;8.60;;;;;;;17.98;57.06;98087.50;5026694;28;20529;-69
2023/10/02 04:11:39;;;;;;;14.93;8.20;;;;;;;17.98;57.81;98083.00;5025138;28;20431;-71
2023/10/02 04:14:17;;;;;;;16.20;8.30;;;;;;;17.95;58.06;98080.72;5028434;28;20490;-69
2023/10/02 04:16:49;;;;;;;17.63;8.00;;;;;;;18.00;57.85;98090.81;5022257;28;20790;-71
2023/10/02 04:19:24;;;;;;;17.30;9.33;;;;;;;17.99;57.80;98083.84;5030382;28;20467;-70
2023/10/02 04:21:53;;;;;;;16.27;8.57;;;;;;;17.92;57.83;98089.00;5028046;28;20464;-73
2023/10/02 04:24:25;;;;;;;14.47;8.00;;;;;;;17.87;57.64;98083.41;5028234;28;20883;-71
2023/10/02 04:27:05;;;;;;;13.67;8.23;;;;;;;17.77;57.49;98092.44;5029016;28;20438;-70
2023/10/02 04:29:37;;;;;;;17.00;8.70;;;;;;;17.65;57.29;98099.94;5027609;28;20927;-70
2023/10/02 04:32:14;;;;;;;15.87;7.97;;;;;;;17.57;57.22;98092.06;5028761;28;20434;-71
2023/10/02 04:34:46;;;;;;;18.97;8.53;;;;;;;17.46;57.58;98095.94;5028792;28;20458;-70
2023/10/02 04:37:20;;;;;;;22.43;9.20;;;;;;;17.50;57.51;98091.13;5028540;28;20982;-70
2023/10/02 04:40:00;;;;;;;18.90;8.83;;;;;;;17.48;57.82;98095.78;5017985;28;20434;-70
2023/10/02 04:42:28;;;;;;;16.13;8.50;;;;;;;17.48;58.05;98098.44;5030886;28;20434;-69
2023/10/02 04:44:57;;;;;;;13.80;8.70;;;;;;;17.49;58.59;98092.13;5028365;28;20458;-69
2023/10/02 04:47:26;;;;;;;15.57;9.27;;;;;;;17.51;58.49;98092.78;5032843;28;20457;-71
2023/10/02 04:52:53;;;;;;;16.40;8.90;;;;;;;17.45;57.96;98094.28;5026534;28;20498;-71
2023/10/02 04:55:22;;;;;;;16.33;8.80;;;;;;;17.33;58.38;98093.88;5027217;28;20457;-69
2023/10/02 04:57:50;;;;;;;20.50;8.07;;;;;;;17.35;58.59;98089.22;5028468;28;20473;-71
2023/10/02 05:00:35;;;;;;;16.10;8.63;;;;;;;17.42;58.39;98097.31;5032181;28;20483;-70
2023/10/02 05:03:09;;;;;;;16.10;8.53;;;;;;;17.39;58.11;98092.34;5040295;28;20844;-72
2023/10/02 05:05:42;;;;;;;18.93;8.90;;;;;;;17.39;58.42;98096.81;5027960;28;20490;-71
2023/10/02 05:08:18;;;;;;;15.57;8.07;;;;;;;17.42;58.56;98089.34;5027161;28;20858;-70
2023/10/02 05:10:47;;;;;;;15.53;9.07;;;;;;;17.41;58.77;98087.69;5023411;28;20495;-71
2023/10/02 05:13:13;;;;;;;18.73;9.33;;;;;;;17.42;58.71;98091.16;5028223;28;20461;-70
2023/10/02 05:16:06;;;;;;;20.93;9.57;;;;;;;17.44;58.64;98089.16;5029669;28;20461;-70
2023/10/02 05:18:24;;;;;;;16.47;9.07;;;;;;;17.49;58.63;98087.63;5026452;28;20481;-72
2023/10/02 05:20:49;;;;;;;15.63;8.20;;;;;;;17.48;58.52;98088.63;5030153;28;20509;-70
2023/10/02 05:23:15;;;;;;;19.33;9.00;;;;;;;17.55;58.40;98090.59;5030386;28;20188;-70
2023/10/02 05:25:41;;;;;;;23.63;11.87;;;;;;;17.55;58.61;98093.25;5027128;28;20211;-73
2023/10/02 05:28:07;;;;;;;19.07;11.73;;;;;;;17.56;58.64;98101.00;5039069;28;20194;-72
2023/10/02 05:30:42;;;;;;;22.43;11.83;;;;;;;17.54;58.47;98094.25;5026245;28;20450;-70
2023/10/02 05:33:07;;;;;;;19.43;12.10;;;;;;;17.44;58.43;98105.06;5029160;28;20589;-71
2023/10/02 05:35:33;;;;;;;21.20;12.93;;;;;;;17.46;58.59;98105.72;5029076;28;20464;-70
2023/10/02 05:37:58;;;;;;;19.97;11.90;;;;;;;17.44;58.50;98105.06;5041010;28;20194;-71
2023/10/02 05:43:09;;;;;;;18.63;10.20;;;;;;;17.38;59.13;98108.41;5032364;28;20850;-71
2023/10/02 05:50:52;;;;;;;18.30;9.70;;;;;;;17.41;60.03;98113.34;5028420;28;20429;-70
2023/10/02 05:53:19;;;;;;;17.90;9.23;;;;;;;17.47;60.06;98110.03;5032853;28;20462;-72
2023/10/02 05:55:57;;;;;;;18.00;9.90;;;;;;;17.70;59.57;98115.34;5037875;28;20492;-70
2023/10/02 05:58:31;;;;;;;18.03;8.67;;;;;;;17.81;58.90;98106.16;5025326;28;20861;-70
2023/10/02 06:01:01;;;;;;;19.03;9.50;;;;;;;17.93;58.69;98115.34;5030937;28;20433;-71
2023/10/02 06:03:29;;;;;;;18.70;9.13;;;;;;;18.02;58.55;98112.69;5027202;28;21129;-71
2023/10/02 06:08:41;;;;;;;21.50;10.40;;;;;;;17.89;58.61;98114.06;5038168;28;20441;-71
2023/10/02 06:11:25;;;;;;;15.80;9.80;;;;;;;17.83;58.80;98120.06;5032925;28;20559;-71
2023/10/02 06:13:56;;;;;;;17.80;9.67;;;;;;;17.94;58.76;98122.28;5035608;28;20528;-71
2023/10/02 06:16:24;;;;;;;23.03;9.90;;;;;;;18.06;58.32;98119.25;5026243;28;20458;-70
2023/10/02 06:19:03;;;;;;;20.70;10.90;;;;;;;18.22;58.00;98123.59;5020976;28;20525;-70
2023/10/02 06:21:29;;;;;;;19.17;10.07;;;;;;;18.38;57.18;98126.13;5027157;28;20426;-71
2023/10/02 06:23:56;;;;;;;21.93;10.10;;;;;;;18.47;56.78;98132.16;5031864;28;20781;-70
2023/10/02 06:26:25;;;;;;;19.93;9.17;;;;;;;18.57;56.44;98126.63;5031467;28;21011;-70
2023/10/02 06:29:13;;;;;;;17.40;10.30;;;;;;;18.68;56.63;98123.50;4995127;28;20524;-71
2023/10/02 06:31:41;;;;;;;18.97;9.10;;;;;;;18.80;56.31;98123.88;5019488;28;20525;-70
2023/10/02 06:34:08;;;;;;;18.90;9.53;;;;;;;18.80;56.01;98123.88;5004593;28;20462;-70
2023/10/02 06:36:45;;;;;;;23.60;10.57;;;;;;;18.82;55.90;98124.50;5020458;28;20963;-71
2023/10/02 06:39:17;;;;;;;18.17;10.13;;;;;;;18.93;56.03;98125.06;5035439;28;20958;-70
2023/10/02 06:41:44;;;;;;;20.87;10.23;;;;;;;19.06;55.90;98127.13;5041564;28;20537;-70
2023/10/02 06:44:16;;;;;;;16.03;8.83;;;;;;;19.16;55.94;98125.00;5039804;28;20426;-70
2023/10/02 06:46:54;;;;;;;19.50;10.17;;;;;;;19.27;55.55;98121.06;5037926;28;20858;-71
2023/10/02 06:49:20;;;;;;;18.27;8.80;;;;;;;19.42;55.61;98123.66;5035730;28;20438;-69
2023/10/02 06:51:50;;;;;;;18.07;10.30;;;;;;;19.56;55.42;98124.63;5031246;28;20430;-71
2023/10/02 06:54:18;;;;;;;17.60;10.20;;;;;;;19.67;55.33;98132.13;5039467;28;20211;-72
2023/10/02 06:56:44;;;;;;;25.73;10.50;;;;;;;19.75;55.18;98134.66;5038801;28;20430;-71
2023/10/02 06:59:09;;;;;;;20.03;10.37;;;;;;;19.76;54.28;98130.16;5031045;28;20445;-71
2023/10/02 07:01:35;;;;;;;18.57;10.30;;;;;;;19.75;54.16;98126.69;5030272;28;20418;-71
2023/10/02 07:04:09;;;;;;;18.13;9.63;;;;;;;19.72;54.36;98124.41;5042747;28;20240;-71
2023/10/02 07:06:44;;;;;;;18.57;10.37;;;;;;;19.69;54.62;98129.28;5038605;28;20215;-70
2023/10/02 07:09:10;;;;;;;18.53;10.10;;;;;;;19.72;54.68;98128.91;5028441;28;20437;-71
2023/10/02 07:11:42;;;;;;;20.90;9.93;;;;;;;19.73;54.47;98122.56;5032691;28;20422;-71
2023/10/02 07:14:09;;;;;;;19.60;9.53;;;;;;;19.70;54.53;98121.09;5030896;28;20805;-71
2023/10/02 07:16:35;;;;;;;22.50;10.93;;;;;;;19.75;54.84;98126.69;5029876;28;20541;-71
2023/10/02 07:19:01;;;;;;;22.87;10.50;;;;;;;19.78;55.22;98123.63;5035271;28;20942;-71
2023/10/02 07:21:30;;;;;;;20.90;10.10;;;;;;;19.75;55.47;98124.03;5032153;28;20473;-72
2023/10/02 07:24:19;;;;;;;18.53;9.80;;;;;;;19.83;55.59;98120.44;5024077;28;20558;-70
2023/10/02 07:26:51;;;;;;;20.07;9.80;;;;;;;19.94;55.48;98119.94;5027157;28;20468;-71
2023/10/02 07:29:17;;;;;;;19.77;9.53;;;;;;;19.97;55.86;98121.41;5036777;28;20453;-71
2023/10/02 07:31:44;;;;;;;18.90;10.10;;;;;;;20.05;55.54;98112.47;5030101;28;20454;-71
2023/10/02 07:34:10;;;;;;;22.10;9.83;;;;;;;20.12;55.84;98121.31;5041402;28;20454;-71
2023/10/02 07:36:44;;;;;;;19.87;9.60;;;;;;;20.10;56.36;98113.53;5031742;28;20455;-71
2023/10/02 07:39:35;;;;;;;22.43;9.97;;;;;;;20.23;56.25;98109.34;5039453;28;20512;-71
2023/10/02 07:42:00;;;;;;;20.63;10.10;;;;;;;20.30;56.04;98115.53;5034242;28;20438;-71
2023/10/02 07:44:36;;;;;;;18.70;9.90;;;;;;;20.42;55.85;98110.50;5038157;28;20425;-72
2023/10/02 07:47:10;;;;;;;20.37;10.37;;;;;;;20.59;55.76;98108.38;5038720;28;20417;-72
2023/10/02 07:49:39;;;;;;;19.53;10.90;;;;;;;20.80;55.55;98109.34;5038901;28;20426;-71
2023/10/02 07:52:07;;;;;;;18.77;10.10;;;;;;;21.02;55.40;98102.94;5038720;28;20425;-71
2023/10/02 07:54:44;;;;;;;18.90;9.33;;;;;;;21.26;54.06;98108.75;5029921;28;20458;-70
2023/10/02 07:57:13;;;;;;;21.60;9.83;;;;;;;21.60;53.82;98104.38;5035361;28;20513;-70
2023/10/02 07:59:40;;;;;;;21.23;9.80;;;;;;;21.92;53.29;98099.31;5031748;28;20438;-71
2023/10/02 08:02:21;;;;;;;21.77;10.30;;;;;;;22.29;52.24;98090.88;5047932;28;20908;-70
2023/10/02 08:04:51;;;;;;;17.83;9.97;;;;;;;22.67;51.22;98102.81;5036690;28;20442;-69
2023/10/02 08:07:17;;;;;;;21.60;10.33;;;;;;;23.04;50.16;98091.56;5035889;28;20478;-71
2023/10/02 08:09:47;;;;;;;21.73;9.20;;;;;;;23.38;49.53;98092.28;5042396;28;20437;-70
2023/10/02 08:12:33;;;;;;;20.40;9.40;;;;;;;23.69;48.44;98091.47;5045480;28;20445;-70
2023/10/02 08:15:05;;;;;;;22.50;10.53;;;;;;;24.01;47.80;98096.88;5044571;28;21004;-69
2023/10/02 08:20:15;;;;;;;20.40;10.93;;;;;;;24.72;45.55;98095.84;5037586;28;20466;-70
2023/10/02 08:22:45;;;;;;;19.50;9.63;;;;;;;25.07;45.32;98096.06;5037414;28;20437;-69
2023/10/02 08:25:14;;;;;;;18.57;11.10;;;;;;;25.37;44.09;98091.78;5034209;28;20502;-70
2023/10/02 08:27:41;;;;;;;26.20;10.73;;;;;;;25.63;42.98;98089.81;5027968;28;20519;-70
2023/10/02 08:30:19;;;;;;;17.73;10.10;;;;;;;25.87;42.25;98086.16;5028958;28;20895;-71
2023/10/02 08:32:45;;;;;;;21.03;11.13;;;;;;;26.14;41.81;98090.31;5030152;28;20434;-71
2023/10/02 08:35:13;;;;;;;15.70;9.50;;;;;;;26.37;41.54;98084.13;5036622;28;20446;-70
2023/10/02 08:37:40;;;;;;;18.93;10.03;;;;;;;26.57;40.55;98088.34;5033707;28;20446;-71
2023/10/02 08:40:08;;;;;;;22.90;10.60;;;;;;;26.83;40.09;98082.50;5028866;28;20437;-70
2023/10/02 08:42:33;;;;;;;18.73;10.90;;;;;;;26.85;38.04;98079.56;5036611;28;20804;-70
2023/10/02 08:45:00;;;;;;;18.73;10.13;;;;;;;27.13;38.54;98076.09;5028587;28;20443;-71
2023/10/02 08:47:26;;;;;;;17.03;9.90;;;;;;;27.30;37.18;98078.03;5031335;28;20282;-70
2023/10/02 08:50:04;;;;;;;18.60;10.80;;;;;;;27.53;37.24;98079.00;5028761;28;20881;-70
2023/10/02 08:52:38;;;;;;;22.47;11.30;;;;;;;27.69;36.09;98072.03;5029315;28;20198;-70
2023/10/02 08:58:17;;;;;;;21.60;13.00;;;;;;;27.99;35.54;98073.59;5029868;28;20488;-70
2023/10/02 09:03:43;;;;;;;19.17;11.10;;;;;;;28.49;34.43;98080.03;5029008;28;20434;-70
2023/10/02 09:06:26;;;;;;;21.17;12.20;;;;;;;28.70;33.77;98073.03;5027789;28;21010;-70
2023/10/02 09:11:41;;;;;;;20.80;10.93;;;;;;;29.14;32.91;98077.66;5025842;28;20419;-72
2023/10/02 09:14:39;;;;;;;19.40;10.10;;;;;;;29.23;32.23;98070.75;5037680;28;20573;-72
2023/10/02 09:17:12;;;;;;;19.03;10.40;;;;;;;29.45;31.64;98074.50;5028957;28;20435;-72
2023/10/02 09:19:41;;;;;;;19.27;11.03;;;;;;;29.55;31.48;98080.84;5031242;28;20468;-70
2023/10/02 09:22:13;;;;;;;17.00;9.23;;;;;;;29.64;31.03;98067.69;5022437;28;20430;-70
2023/10/02 09:24:40;;;;;;;18.00;10.40;;;;;;;29.79;30.95;98071.59;5028451;28;20485;-70
2023/10/02 09:27:27;;;;;;;18.00;10.37;;;;;;;29.92;31.22;98068.47;5030381;28;20979;-71
2023/10/02 09:32:51;;;;;;;21.70;10.40;;;;;;;30.50;30.72;98059.69;5028527;28;20513;-71
2023/10/02 09:35:39;;;;;;;19.30;10.37;;;;;;;30.50;29.82;98057.78;5024951;28;20453;-71
2023/10/02 09:38:10;;;;;;;19.03;10.70;;;;;;;30.59;30.27;98060.06;5036162;28;20535;-71
2023/10/02 09:43:28;;;;;;;21.07;10.70;;;;;;;30.89;28.26;98051.25;5048598;28;20563;-71
2023/10/02 09:46:05;;;;;;;15.87;9.60;;;;;;;31.14;29.41;98044.34;5055276;28;20450;-70
2023/10/02 09:51:25;;;;;;;21.63;10.90;;;;;;;30.93;28.57;98054.25;5023090;28;20542;-70
2023/10/02 09:54:04;;;;;;;19.60;10.60;;;;;;;31.15;28.83;98045.13;5027757;28;20875;-71
2023/10/02 09:56:41;;;;;;;20.07;10.73;;;;;;;31.39;28.38;98043.56;5027449;28;20454;-70
2023/10/02 09:59:16;;;;;;;21.60;10.63;;;;;;;31.74;29.04;98033.06;5022337;28;20453;-71
2023/10/02 10:01:45;;;;;;;26.57;10.43;;;;;;;32.09;29.32;98034.13;5012051;28;20426;-70
2023/10/02 10:07:09;;;;;;;24.73;11.27;;;;;;;31.94;28.85;98032.25;5034189;28;20438;-71
2023/10/02 10:09:50;;;;;;;23.87;10.37;;;;;;;32.09;27.90;98033.31;5036174;28;20434;-71
2023/10/02 10:12:50;;;;;;;23.30;10.20;;;;;;;32.40;27.63;98025.97;5030320;28;20433;-71
2023/10/02 10:15:25;;;;;;;22.83;11.50;;;;;;;32.60;26.60;98029.69;5037043;28;20459;-71
2023/10/02 10:17:51;;;;;;;19.17;10.90;;;;;;;32.90;26.53;98028.78;5029702;28;20461;-71
2023/10/02 10:20:20;;;;;;;18.60;11.07;;;;;;;33.20;26.02;98026.19;5028353;28;20822;-72
2023/10/02 10:22:55;;;;;;;20.50;11.30;;;;;;;33.26;24.68;98025.06;5034584;28;20468;-70
2023/10/02 10:27:54;;;;;;;24.13;11.03;;;;;;;33.53;24.67;98013.75;5027388;28;20445;-71
2023/10/02 10:30:27;;;;;;;19.60;10.67;;;;;;;33.71;24.30;98016.88;5024928;28;20236;-70
2023/10/02 10:35:41;;;;;;;20.90;11.50;;;;;;;34.05;22.72;98002.47;5035159;28;21048;-71
2023/10/02 10:38:36;;;;;;;20.23;11.73;;;;;;;34.22;22.32;98006.66;5036703;28;20432;-71
2023/10/02 10:41:43;;;;;;;26.97;12.40;;;;;;;34.38;22.34;97994.53;5040426;28;20424;-71
2023/10/02 10:44:14;;;;;;;20.80;12.40;;;;;;;34.56;22.41;97994.88;5026769;28;20839;-71
2023/10/02 10:46:47;;;;;;;24.40;13.30;;;;;;;34.79;22.51;97992.41;5033087;28;20457;-69
2023/10/02 10:49:23;;;;;;;24.63;13.63;;;;;;;34.67;22.37;97990.91;5033344;28;20483;-70
2023/10/02 10:51:52;;;;;;;31.23;13.23;;;;;;;34.49;22.05;97987.06;5027865;28;20805;-71
2023/10/02 10:54:27;;;;;;;26.80;13.20;;;;;;;34.43;22.79;97990.97;5028437;28;20462;-71
2023/10/02 10:57:19;;;;;;;23.30;13.33;;;;;;;34.54;22.77;97991.63;5035432;28;20551;-71
2023/10/02 10:59:45;;;;;;;24.40;13.43;;;;;;;34.27;22.54;97993.81;5033618;28;20442;-71
2023/10/02 11:02:13;;;;;;;26.63;15.53;;;;;;;34.53;22.84;97985.38;5043381;28;20492;-73
2023/10/02 11:04:45;;;;;;;27.47;14.80;;;;;;;34.72;22.50;97982.69;5021572;28;20435;-71
2023/10/02 11:07:19;;;;;;;29.53;18.77;;;;;;;34.94;22.35;97994.16;5035104;28;20519;-71
2023/10/02 11:12:55;;;;;;;28.73;14.50;;;;;;;35.11;22.73;97982.75;5031825;28;20438;-71
2023/10/02 11:18:18;;;;;;;33.90;14.50;;;;;;;34.79;22.89;97984.22;5028051;28;20457;-72
2023/10/02 11:20:51;;;;;;;25.00;13.53;;;;;;;34.62;22.96;97977.41;5035748;28;20471;-72
2023/10/02 11:23:39;;;;;;;28.40;14.80;;;;;;;35.01;23.16;97978.25;5039521;28;20483;-72
2023/10/02 11:26:13;;;;;;;25.40;14.47;;;;;;;35.09;22.74;97976.78;5035107;28;20520;-71
2023/10/02 11:28:44;;;;;;;27.00;14.67;;;;;;;35.30;22.89;97969.13;5031331;28;20438;-72
2023/10/02 11:31:13;;;;;;;27.57;14.30;;;;;;;35.36;22.74;97976.91;5033451;28;20502;-71
2023/10/02 11:33:40;;;;;;;34.77;14.90;;;;;;;35.49;22.47;97967.19;5037762;28;20978;-72
2023/10/02 11:36:11;;;;;;;29.50;15.03;;;;;;;35.06;22.64;97962.66;5038393;28;20528;-72
2023/10/02 11:38:38;;;;;;;27.27;15.20;;;;;;;35.13;22.83;97958.75;5026456;28;20853;-71
2023/10/02 11:41:04;;;;;;;29.13;15.97;;;;;;;35.19;22.52;97952.94;5033940;28;20429;-71
2023/10/02 11:43:29;;;;;;;28.17;15.57;;;;;;;35.13;22.17;97945.16;5039838;28;20459;-71
2023/10/02 11:45:55;;;;;;;25.10;14.93;;;;;;;35.22;22.82;97938.69;5032395;28;20206;-71
2023/10/02 11:48:20;;;;;;;30.53;14.50;;;;;;;35.22;22.57;97940.63;5032824;28;20221;-71
2023/10/02 11:50:46;;;;;;;28.37;16.13;;;;;;;35.17;22.68;97938.81;5031970;28;20208;-71
2023/10/02 11:53:12;;;;;;;26.13;15.00;;;;;;;35.12;22.78;97936.16;5029590;28;20226;-70
2023/10/02 11:55:37;;;;;;;28.57;14.67;;;;;;;35.00;22.63;97938.50;5029960;28;20994;-72
2023/10/02 11:58:04;;;;;;;27.60;15.63;;;;;;;35.10;23.00;97932.13;5031341;28;20851;-69
2023/10/02 12:00:29;;;;;;;28.07;14.63;;;;;;;35.08;22.82;97924.25;5044686;28;20187;-71
2023/10/02 12:02:56;;;;;;;27.80;15.30;;;;;;;35.10;22.86;97924.75;5032562;28;20430;-71
2023/10/02 12:05:22;;;;;;;25.73;14.10;;;;;;;35.14;22.87;97922.25;5048719;28;20248;-70
2023/10/02 12:07:48;;;;;;;31.33;17.30;;;;;;;35.34;22.81;97915.66;5030878;28;21074;-71
2023/10/02 12:10:16;;;;;;;30.00;16.07;;;;;;;35.32;22.44;97918.66;5029207;28;20433;-71
2023/10/02 12:12:45;;;;;;;32.20;15.00;;;;;;;35.42;22.49;97912.25;5031819;28;20273;-71
2023/10/02 12:15:13;;;;;;;28.80;15.07;;;;;;;35.47;22.14;97909.47;5029182;28;20864;-71
2023/10/02 12:17:39;;;;;;;28.37;15.83;;;;;;;35.56;22.09;97909.56;5033457;28;20425;-72
2023/10/02 12:20:10;;;;;;;29.70;16.00;;;;;;;35.76;21.84;97907.59;5035638;28;20457;-71
2023/10/02 12:22:36;;;;;;;30.00;17.40;;;;;;;35.95;21.98;97905.63;5034555;28;20191;-72
2023/10/02 12:25:04;;;;;;;28.47;15.23;;;;;;;36.05;21.96;97895.63;5028840;28;20465;-71
2023/10/02 12:27:30;;;;;;;28.43;15.47;;;;;;;36.22;21.42;97895.03;5029336;28;20190;-72
2023/10/02 12:29:58;;;;;;;27.60;16.87;;;;;;;36.26;21.27;97891.38;5037561;28;20425;-72
2023/10/02 12:32:24;;;;;;;28.10;14.93;;;;;;;36.33;21.50;97890.13;5037450;28;20191;-72
2023/10/02 12:34:50;;;;;;;29.60;16.33;;;;;;;36.28;21.35;97878.25;5041464;28;20553;-70
2023/10/02 12:37:18;;;;;;;30.30;16.30;;;;;;;36.35;21.36;97886.00;5030636;28;20569;-71
2023/10/02 12:39:47;;;;;;;28.93;16.43;;;;;;;36.40;21.21;97879.63;5029021;28;20202;-72
2023/10/02 12:42:13;;;;;;;39.23;17.53;;;;;;;36.33;20.93;97879.22;5034930;28;20425;-71
2023/10/02 12:44:40;;;;;;;31.17;16.50;;;;;;;36.32;21.20;97877.59;5044691;28;20424;-71
2023/10/02 12:47:06;;;;;;;32.43;16.43;;;;;;;36.28;21.11;97878.25;5030650;28;20293;-72
2023/10/02 12:49:35;;;;;;;30.60;17.10;;;;;;;36.23;20.88;97864.69;5029098;28;20488;-70